Time;durP1;ratioP1;P1;durP2;ratioP2;P2;SDS_P1;SDS_P2;PMS_P1;PMS_P2;Temp;Humidity;BMP_temperature;BMP_pressure;BME280_temperature;BME280_humidity;BME280_pressure;Samples;Min_cycle;Max_cycle;Signal;HPM_P1;HPM_P2
2022/07/29 00:01:24;;;;;;;3.78;1.00;;;13.50;99.90;;;;;;5015211;28;20198;-76
2022/07/29 00:03:55;;;;;;;3.30;1.00;;;13.70;99.90;;;;;;5015270;28;20203;-75
2022/07/29 00:06:26;;;;;;;1.58;0.80;;;13.80;99.90;;;;;;5015143;28;20253;-77
2022/07/29 00:08:58;;;;;;;2.22;0.90;;;13.90;99.90;;;;;;5015068;28;20198;-76
2022/07/29 00:11:29;;;;;;;1.10;0.60;;;14.00;99.90;;;;;;5014869;28;20277;-75
2022/07/29 00:14:00;;;;;;;1.90;1.10;;;14.10;99.90;;;;;;5014964;28;20195;-77
2022/07/29 00:16:30;;;;;;;4.03;1.25;;;14.10;99.90;;;;;;5015171;28;20191;-78
2022/07/29 00:19:01;;;;;;;3.92;1.30;;;14.20;99.90;;;;;;5015250;28;20195;-75
2022/07/29 00:21:31;;;;;;;2.28;0.90;;;14.30;99.90;;;;;;5042198;28;20277;-72
2022/07/29 00:24:04;;;;;;;1.85;0.85;;;14.40;99.90;;;;;;5054169;28;20213;-72
2022/07/29 00:26:35;;;;;;;2.67;0.73;;;14.50;99.90;;;;;;5041691;28;20195;-71
2022/07/29 00:29:06;;;;;;;1.92;1.10;;;14.50;99.90;;;;;;5034408;28;20210;-72
2022/07/29 00:31:37;;;;;;;2.53;0.90;;;14.60;99.90;;;;;;5034253;28;20594;-71
2022/07/29 00:35:43;;;;;;;1.30;0.80;;;14.70;99.90;;;;;;5046606;28;20252;-72
2022/07/29 00:36:57;;;;;;;2.00;0.85;;;14.70;99.90;;;;;;5033699;28;20245;-73
2022/07/29 00:39:29;;;;;;;3.03;0.90;;;14.70;99.90;;;;;;5033795;28;20234;-76
2022/07/29 00:42:00;;;;;;;1.33;0.70;;;14.80;99.90;;;;;;5014553;28;20209;-76
2022/07/29 00:44:31;;;;;;;2.38;0.90;;;14.80;99.90;;;;;;5030950;28;20194;-76
2022/07/29 00:47:01;;;;;;;1.73;0.70;;;14.90;99.90;;;;;;5032625;28;20727;-77
2022/07/29 00:49:32;;;;;;;1.17;0.82;;;14.90;99.90;;;;;;5033732;28;20641;-75
2022/07/29 00:52:04;;;;;;;1.65;0.75;;;14.90;99.90;;;;;;5032960;28;20788;-77
2022/07/29 00:54:38;;;;;;;2.53;0.82;;;14.90;99.90;;;;;;5034016;28;20194;-72
2022/07/29 00:57:10;;;;;;;2.38;0.70;;;15.00;99.90;;;;;;5014427;28;20198;-73
2022/07/29 00:59:42;;;;;;;1.98;0.80;;;15.10;99.90;;;;;;5020522;28;20198;-78
2022/07/29 01:02:13;;;;;;;0.73;0.60;;;15.20;99.90;;;;;;5034125;28;20272;-76
2022/07/29 01:04:44;;;;;;;1.63;0.60;;;15.40;99.90;;;;;;5033773;28;20202;-76
2022/07/29 01:07:15;;;;;;;1.95;0.77;;;15.40;99.90;;;;;;5033739;28;20187;-74
2022/07/29 01:09:48;;;;;;;2.58;1.02;;;15.50;99.90;;;;;;5033896;28;20201;-76
2022/07/29 01:12:23;;;;;;;1.40;0.70;;;15.50;99.90;;;;;;5033708;28;20218;-77
2022/07/29 01:14:55;;;;;;;3.75;1.08;;;15.50;99.90;;;;;;5033632;28;20197;-72
2022/07/29 01:17:30;;;;;;;1.88;0.80;;;15.50;99.90;;;;;;5033718;28;20191;-79
2022/07/29 01:20:07;;;;;;;2.80;0.80;;;15.60;99.90;;;;;;5033589;28;20204;-78
2022/07/29 01:23:05;;;;;;;2.90;0.80;;;15.60;99.90;;;;;;5032850;28;20198;-77
2022/07/29 01:25:57;;;;;;;3.45;0.75;;;15.70;99.90;;;;;;5023428;28;20260;-76
2022/07/29 01:29:00;;;;;;;2.78;0.73;;;15.80;99.90;;;;;;5040778;28;20194;-76
2022/07/29 01:31:41;;;;;;;1.15;0.70;;;15.70;99.90;;;;;;5006735;28;20242;-74
2022/07/29 01:34:20;;;;;;;1.33;0.80;;;15.80;99.90;;;;;;5044294;28;20256;-72
2022/07/29 01:36:53;;;;;;;1.08;0.68;;;15.90;99.90;;;;;;5032839;28;20238;-74
2022/07/29 01:39:29;;;;;;;0.77;0.60;;;15.90;99.90;;;;;;5033460;28;20580;-72
2022/07/29 01:42:04;;;;;;;2.28;0.80;;;15.90;99.90;;;;;;5033202;28;20256;-72
2022/07/29 01:44:41;;;;;;;1.45;0.70;;;16.10;99.90;;;;;;5032809;28;20182;-72
2022/07/29 01:47:17;;;;;;;1.33;0.60;;;16.10;99.90;;;;;;5032839;28;20194;-72
2022/07/29 01:49:53;;;;;;;0.70;0.70;;;16.20;99.90;;;;;;5032464;28;20193;-72
2022/07/29 01:52:29;;;;;;;1.48;0.70;;;16.20;99.90;;;;;;5022353;28;20685;-71
2022/07/29 01:55:01;;;;;;;1.50;0.70;;;16.20;99.90;;;;;;5013227;28;20253;-75
2022/07/29 01:57:34;;;;;;;1.38;0.60;;;16.20;99.90;;;;;;5032203;28;20260;-72
2022/07/29 02:00:09;;;;;;;1.13;0.70;;;16.20;99.90;;;;;;5033019;28;20216;-77
2022/07/29 02:02:43;;;;;;;0.95;0.55;;;16.20;99.90;;;;;;5033045;28;20201;-74
2022/07/29 02:05:16;;;;;;;4.47;1.00;;;16.20;99.90;;;;;;5032049;28;20186;-72
2022/07/29 02:07:48;;;;;;;1.27;0.70;;;16.20;99.90;;;;;;5032965;28;20190;-72
2022/07/29 02:10:21;;;;;;;1.05;0.68;;;16.40;99.90;;;;;;5032593;28;20190;-72
2022/07/29 02:12:52;;;;;;;2.13;0.77;;;16.50;99.90;;;;;;5032206;28;20221;-74
2022/07/29 02:15:26;;;;;;;4.03;0.70;;;16.60;99.90;;;;;;5032087;28;20194;-77
2022/07/29 02:18:00;;;;;;;1.45;0.90;;;16.70;99.90;;;;;;5032477;28;20197;-77
2022/07/29 02:20:32;;;;;;;1.30;0.60;;;16.60;99.90;;;;;;5032572;28;20190;-72
2022/07/29 02:23:04;;;;;;;1.35;0.60;;;16.50;99.90;;;;;;5032714;28;20225;-72
2022/07/29 02:25:35;;;;;;;0.77;0.60;;;16.60;99.90;;;;;;5032036;28;20193;-77
2022/07/29 02:28:07;;;;;;;1.25;0.55;;;16.60;99.90;;;;;;5032100;28;20198;-74
2022/07/29 02:30:42;;;;;;;1.25;0.60;;;16.50;99.90;;;;;;5012801;28;20195;-73
2022/07/29 02:33:16;;;;;;;1.75;0.90;;;16.50;99.90;;;;;;5029609;28;20295;-76
2022/07/29 02:35:48;;;;;;;1.98;0.75;;;16.50;99.90;;;;;;5041663;28;20575;-73
2022/07/29 02:41:11;;;;;;;1.30;0.55;;;16.60;99.90;;;;;;5029257;28;20246;-74
2022/07/29 02:43:43;;;;;;;2.00;0.60;;;16.70;99.90;;;;;;5032816;28;20603;-74
2022/07/29 02:46:19;;;;;;;3.08;0.70;;;16.70;99.90;;;;;;5032483;28;20227;-72
2022/07/29 02:49:00;;;;;;;2.05;0.77;;;16.80;99.90;;;;;;5032842;28;20205;-71
2022/07/29 02:51:37;;;;;;;0.90;0.57;;;16.80;99.90;;;;;;5041299;28;20210;-71
2022/07/29 02:54:11;;;;;;;1.92;0.80;;;16.80;99.90;;;;;;5046420;28;20594;-77
2022/07/29 02:56:46;;;;;;;2.10;0.60;;;16.80;99.90;;;;;;5036584;28;20193;-70
2022/07/29 02:59:20;;;;;;;0.70;0.50;;;16.80;99.90;;;;;;5039143;28;20248;-71
2022/07/29 03:01:54;;;;;;;0.80;0.50;;;16.80;99.90;;;;;;5032972;28;20199;-72
2022/07/29 03:04:28;;;;;;;1.60;0.50;;;16.60;99.90;;;;;;5031915;28;20191;-72
2022/07/29 03:07:00;;;;;;;1.35;0.60;;;16.70;99.90;;;;;;5039578;28;20190;-71
2022/07/29 03:09:32;;;;;;;1.13;0.50;;;16.70;99.90;;;;;;5040946;28;20194;-72
2022/07/29 03:12:03;;;;;;;0.52;0.50;;;16.70;99.90;;;;;;5037887;28;20218;-71
2022/07/29 03:14:34;;;;;;;2.03;0.60;;;16.60;99.90;;;;;;5035407;28;20190;-73
2022/07/29 03:17:07;;;;;;;2.25;0.63;;;16.60;99.90;;;;;;5036597;28;20197;-71
2022/07/29 03:19:38;;;;;;;2.80;0.80;;;16.50;99.90;;;;;;5038992;28;20200;-71
2022/07/29 03:22:09;;;;;;;1.73;0.60;;;16.50;99.90;;;;;;5043763;28;20186;-72
2022/07/29 03:24:40;;;;;;;2.40;0.52;;;16.40;99.90;;;;;;5035385;28;20631;-72
2022/07/29 03:27:11;;;;;;;2.90;0.68;;;16.40;99.90;;;;;;5043378;28;20195;-72
2022/07/29 03:29:41;;;;;;;1.40;0.65;;;16.30;99.90;;;;;;5039276;28;20195;-71
2022/07/29 03:32:14;;;;;;;1.10;0.55;;;16.30;99.90;;;;;;5040446;28;20214;-71
2022/07/29 03:34:44;;;;;;;1.90;0.73;;;16.40;99.90;;;;;;5047716;28;20630;-71
2022/07/29 03:37:15;;;;;;;1.75;0.50;;;16.30;99.90;;;;;;5039508;28;20233;-71
2022/07/29 03:39:48;;;;;;;1.90;0.60;;;16.30;99.90;;;;;;5046569;28;20665;-72
2022/07/29 03:42:22;;;;;;;2.97;0.70;;;16.20;99.90;;;;;;5036631;28;20269;-73
2022/07/29 03:44:55;;;;;;;1.60;0.68;;;16.20;99.90;;;;;;5045924;28;20202;-71
2022/07/29 03:47:30;;;;;;;4.25;0.70;;;16.20;99.90;;;;;;5033771;28;20191;-73
2022/07/29 03:50:08;;;;;;;1.65;0.60;;;16.10;99.90;;;;;;5039143;28;20186;-75
2022/07/29 03:52:39;;;;;;;1.23;0.60;;;16.00;99.90;;;;;;5046992;28;20225;-72
2022/07/29 03:55:11;;;;;;;2.53;1.30;;;16.00;99.90;;;;;;5036965;28;20190;-70
2022/07/29 03:57:42;;;;;;;2.60;0.75;;;15.80;99.90;;;;;;5047752;28;20190;-73
2022/07/29 04:00:13;;;;;;;2.15;0.70;;;15.80;99.90;;;;;;5038923;28;20197;-74
2022/07/29 04:02:48;;;;;;;1.83;0.90;;;15.80;99.90;;;;;;5034496;28;20585;-73
2022/07/29 04:05:20;;;;;;;2.45;0.70;;;15.70;99.90;;;;;;5037969;28;20660;-77
2022/07/29 04:07:51;;;;;;;1.65;0.70;;;15.70;99.90;;;;;;5043253;28;20638;-72
2022/07/29 04:10:22;;;;;;;1.85;0.60;;;15.70;99.90;;;;;;5021436;28;20659;-74
2022/07/29 04:12:53;;;;;;;2.88;0.50;;;15.70;99.90;;;;;;5040231;28;20263;-77
2022/07/29 04:15:24;;;;;;;1.00;0.60;;;15.70;99.90;;;;;;5045959;28;20190;-71
2022/07/29 04:17:56;;;;;;;1.70;0.70;;;15.70;99.90;;;;;;5039068;28;20198;-72
2022/07/29 04:20:27;;;;;;;2.50;0.75;;;15.70;99.90;;;;;;5034779;28;20190;-72
2022/07/29 04:22:57;;;;;;;1.50;0.70;;;15.60;99.90;;;;;;5035865;28;20587;-73
2022/07/29 04:25:28;;;;;;;3.15;1.30;;;15.60;99.90;;;;;;5034654;28;20198;-75
2022/07/29 04:28:02;;;;;;;2.72;0.80;;;15.60;99.90;;;;;;5035722;28;20193;-74
2022/07/29 04:30:34;;;;;;;1.25;0.50;;;15.60;99.90;;;;;;5049442;28;20236;-72
2022/07/29 04:33:09;;;;;;;4.43;0.90;;;15.60;99.90;;;;;;5043389;28;20226;-72
2022/07/29 04:35:40;;;;;;;0.70;0.60;;;15.60;99.90;;;;;;5046689;28;20250;-76
2022/07/29 04:38:11;;;;;;;1.35;0.77;;;15.60;99.90;;;;;;5035737;28;20234;-72
2022/07/29 04:40:41;;;;;;;3.10;0.80;;;15.70;99.90;;;;;;5050030;28;20202;-78
2022/07/29 04:43:12;;;;;;;2.13;0.70;;;15.60;99.90;;;;;;5046661;28;20201;-72
2022/07/29 04:45:43;;;;;;;5.30;0.90;;;15.60;99.90;;;;;;5053818;28;20194;-75
2022/07/29 04:48:16;;;;;;;2.30;0.90;;;15.50;99.90;;;;;;5043063;28;20205;-72
2022/07/29 04:50:46;;;;;;;1.55;0.82;;;15.50;99.90;;;;;;5032818;28;20313;-73
2022/07/29 04:53:17;;;;;;;1.60;0.60;;;15.70;99.90;;;;;;5032761;28;20218;-77
2022/07/29 04:55:48;;;;;;;2.13;0.50;;;15.70;99.90;;;;;;5034120;28;20191;-76
2022/07/29 04:58:19;;;;;;;4.30;0.75;;;15.80;99.90;;;;;;5025276;28;20197;-76
2022/07/29 05:00:49;;;;;;;2.60;0.50;;;15.70;99.90;;;;;;5032234;28;20193;-76
2022/07/29 05:03:22;;;;;;;1.15;0.60;;;15.60;99.90;;;;;;5052170;28;20601;-74
2022/07/29 05:05:52;;;;;;;2.50;0.95;;;15.60;99.90;;;;;;5033133;28;20194;-73
2022/07/29 05:08:23;;;;;;;2.30;0.60;;;15.50;99.90;;;;;;5043641;28;20194;-75
2022/07/29 05:10:54;;;;;;;1.63;0.75;;;15.50;99.90;;;;;;5047518;28;20185;-75
2022/07/29 05:13:24;;;;;;;1.48;0.77;;;15.50;99.90;;;;;;5044854;28;20214;-74
2022/07/29 05:15:55;;;;;;;2.72;0.80;;;15.40;99.90;;;;;;5043425;28;20190;-77
2022/07/29 05:18:28;;;;;;;1.58;0.88;;;15.40;99.90;;;;;;5041336;28;20186;-76
2022/07/29 05:20:58;;;;;;;1.50;0.60;;;15.30;99.90;;;;;;5044334;28;20194;-74
2022/07/29 05:23:29;;;;;;;1.90;0.50;;;15.20;99.90;;;;;;5053539;28;20190;-77
2022/07/29 05:26:00;;;;;;;1.73;0.50;;;15.20;99.90;;;;;;5034885;28;20205;-74
2022/07/29 05:28:30;;;;;;;2.05;0.60;;;15.20;99.90;;;;;;5040764;28;20193;-73
2022/07/29 05:31:01;;;;;;;1.60;0.50;;;15.20;99.90;;;;;;5039325;28;20193;-78
2022/07/29 05:33:34;;;;;;;2.08;0.63;;;15.10;99.90;;;;;;5040262;28;20767;-76
2022/07/29 05:36:05;;;;;;;1.73;0.80;;;15.10;99.90;;;;;;5041547;28;20197;-77
2022/07/29 05:38:35;;;;;;;2.80;0.60;;;15.00;99.90;;;;;;5037848;28;20222;-73
2022/07/29 05:41:06;;;;;;;2.03;0.70;;;15.00;99.90;;;;;;5035170;28;20199;-75
2022/07/29 05:43:37;;;;;;;2.35;0.60;;;15.10;99.90;;;;;;5041833;28;20189;-77
2022/07/29 05:46:08;;;;;;;3.03;0.68;;;15.00;99.90;;;;;;5045512;28;20194;-77
2022/07/29 05:48:40;;;;;;;1.23;0.60;;;15.00;99.90;;;;;;5039285;28;20225;-75
2022/07/29 05:51:11;;;;;;;2.03;0.50;;;14.90;99.90;;;;;;5033835;28;20697;-78
2022/07/29 05:53:42;;;;;;;1.80;0.80;;;14.90;99.90;;;;;;5041460;28;20216;-77
2022/07/29 05:56:12;;;;;;;4.63;0.70;;;14.80;99.90;;;;;;5032767;28;20625;-78
2022/07/29 05:58:43;;;;;;;2.13;0.55;;;14.80;99.90;;;;;;5032671;28;20186;-76
2022/07/29 06:01:14;;;;;;;2.65;0.68;;;14.70;99.90;;;;;;5032293;28;20235;-77
2022/07/29 06:03:46;;;;;;;3.75;0.57;;;14.70;99.90;;;;;;5032875;28;20206;-78
2022/07/29 06:06:17;;;;;;;5.45;0.80;;;14.70;99.90;;;;;;5032369;28;20198;-77
2022/07/29 06:08:47;;;;;;;4.72;0.80;;;14.60;99.90;;;;;;5032764;28;20221;-77
2022/07/29 06:11:18;;;;;;;2.40;0.90;;;14.50;99.90;;;;;;5043980;28;20186;-79
2022/07/29 06:13:49;;;;;;;4.70;0.80;;;14.50;99.90;;;;;;5032729;28;20218;-77
2022/07/29 06:16:19;;;;;;;3.83;0.90;;;14.50;99.90;;;;;;5032857;28;20282;-76
2022/07/29 06:18:52;;;;;;;3.13;0.70;;;14.40;99.90;;;;;;5032285;28;20252;-77
2022/07/29 06:21:23;;;;;;;2.67;0.90;;;14.40;99.90;;;;;;5037664;28;20194;-76
2022/07/29 06:23:53;;;;;;;3.53;0.98;;;14.40;99.90;;;;;;5036110;28;20665;-76
2022/07/29 06:26:24;;;;;;;3.30;0.90;;;14.40;99.90;;;;;;5031811;28;20677;-73
2022/07/29 06:28:55;;;;;;;1.52;0.70;;;14.30;99.90;;;;;;5031614;28;20204;-75
2022/07/29 06:31:25;;;;;;;6.15;1.00;;;14.20;99.90;;;;;;5030543;28;20199;-73
2022/07/29 06:33:58;;;;;;;2.08;0.80;;;14.20;99.90;;;;;;5031151;28;20238;-73
2022/07/29 06:36:29;;;;;;;2.80;0.80;;;14.20;99.90;;;;;;5032206;28;20237;-76
2022/07/29 06:38:59;;;;;;;2.03;0.90;;;14.20;99.90;;;;;;5033253;28;20198;-72
2022/07/29 06:41:30;;;;;;;2.30;1.00;;;14.10;99.90;;;;;;5032213;28;20248;-73
2022/07/29 06:44:01;;;;;;;3.78;0.80;;;14.10;99.90;;;;;;5043042;28;20189;-74
2022/07/29 06:46:32;;;;;;;2.40;1.00;;;14.00;99.90;;;;;;5043939;28;20201;-73
2022/07/29 06:49:04;;;;;;;2.15;1.00;;;14.00;99.90;;;;;;5042791;28;20619;-73
2022/07/29 06:51:35;;;;;;;1.58;0.70;;;13.90;99.90;;;;;;5044952;28;20190;-78
2022/07/29 06:54:06;;;;;;;2.38;1.00;;;13.90;99.90;;;;;;5039954;28;20206;-74
2022/07/29 06:56:38;;;;;;;2.60;1.00;;;13.80;99.90;;;;;;5034645;28;20194;-74
2022/07/29 06:59:09;;;;;;;3.45;0.82;;;13.80;99.90;;;;;;5035137;28;20190;-73
2022/07/29 07:01:40;;;;;;;2.00;0.90;;;13.70;99.90;;;;;;5036050;28;20193;-77
2022/07/29 07:04:13;;;;;;;2.10;0.95;;;13.70;99.90;;;;;;5036045;28;20209;-74
2022/07/29 07:06:44;;;;;;;2.65;1.20;;;13.60;99.90;;;;;;5035822;28;20257;-73
2022/07/29 07:09:14;;;;;;;3.70;0.90;;;13.50;99.90;;;;;;5035934;28;20613;-74
2022/07/29 07:11:45;;;;;;;3.10;1.10;;;13.50;99.90;;;;;;5035838;28;20195;-73
2022/07/29 07:14:15;;;;;;;2.83;1.10;;;13.50;99.90;;;;;;5035902;28;20218;-73
2022/07/29 07:16:46;;;;;;;2.15;0.88;;;13.40;99.90;;;;;;5035950;28;20190;-73
2022/07/29 07:19:19;;;;;;;4.40;1.20;;;13.40;99.90;;;;;;5032469;28;20201;-74
2022/07/29 07:21:49;;;;;;;2.85;1.00;;;13.30;99.90;;;;;;5032556;28;20194;-77
2022/07/29 07:24:20;;;;;;;2.45;0.90;;;13.30;99.90;;;;;;5032554;28;20209;-75
2022/07/29 07:26:51;;;;;;;2.60;0.93;;;13.20;99.90;;;;;;5034490;28;20198;-77
2022/07/29 07:29:21;;;;;;;3.72;0.90;;;13.20;99.90;;;;;;5033655;28;20196;-77
2022/07/29 07:31:52;;;;;;;3.08;1.10;;;13.10;99.90;;;;;;5035614;28;20198;-77
2022/07/29 07:34:24;;;;;;;4.90;1.13;;;13.00;99.90;;;;;;5033242;28;20305;-77
2022/07/29 07:36:55;;;;;;;2.92;0.90;;;12.90;99.90;;;;;;5031026;28;20238;-77
2022/07/29 07:39:26;;;;;;;1.75;1.00;;;12.90;99.90;;;;;;5034418;28;20202;-77
2022/07/29 07:41:56;;;;;;;3.15;0.90;;;12.80;99.90;;;;;;5035642;28;20190;-78
2022/07/29 07:44:27;;;;;;;2.58;1.15;;;12.80;99.90;;;;;;5035300;28;20201;-78
2022/07/29 07:46:58;;;;;;;4.57;1.10;;;12.80;99.90;;;;;;5034800;28;20202;-76
2022/07/29 07:49:30;;;;;;;6.40;1.40;;;12.70;99.90;;;;;;5035373;28;20194;-78
2022/07/29 07:52:01;;;;;;;4.68;1.52;;;12.70;99.90;;;;;;5034563;28;20195;-77
2022/07/29 07:54:32;;;;;;;2.85;1.10;;;12.60;99.90;;;;;;5034177;28;20214;-74
2022/07/29 07:57:02;;;;;;;3.03;1.50;;;12.60;99.90;;;;;;5034444;28;20201;-78
2022/07/29 07:59:33;;;;;;;3.30;1.10;;;12.60;99.90;;;;;;5035152;28;20208;-77
2022/07/29 08:02:04;;;;;;;2.95;1.20;;;12.50;99.90;;;;;;5034905;28;20194;-77
2022/07/29 08:04:36;;;;;;;3.55;1.40;;;12.50;99.90;;;;;;5034880;28;20213;-78
2022/07/29 08:07:07;;;;;;;5.30;1.70;;;12.40;99.90;;;;;;5034505;28;20622;-77
2022/07/29 08:09:38;;;;;;;4.25;1.70;;;12.40;99.90;;;;;;5034836;28;20194;-77
2022/07/29 08:12:09;;;;;;;4.45;1.65;;;12.40;99.90;;;;;;5033349;28;20190;-78
2022/07/29 08:14:39;;;;;;;4.43;1.50;;;12.30;99.90;;;;;;5034253;28;20580;-78
2022/07/29 08:17:10;;;;;;;4.97;1.40;;;12.30;99.90;;;;;;5034709;28;20598;-73
2022/07/29 08:19:43;;;;;;;3.28;1.33;;;12.30;99.90;;;;;;5034745;28;20638;-77
2022/07/29 08:22:13;;;;;;;3.13;1.30;;;12.20;99.90;;;;;;5014730;28;20191;-74
2022/07/29 08:24:52;;;;;;;2.85;1.30;;;12.20;99.90;;;;;;5015072;28;20191;-73
2022/07/29 08:27:23;;;;;;;5.55;1.60;;;12.20;99.90;;;;;;5030393;28;20692;-77
2022/07/29 08:29:55;;;;;;;3.47;1.35;;;12.20;99.90;;;;;;5034585;28;20201;-77
2022/07/29 08:32:26;;;;;;;3.38;1.40;;;12.20;99.90;;;;;;5037754;28;20222;-74
2022/07/29 08:34:59;;;;;;;1.77;1.20;;;12.10;99.90;;;;;;5038000;28;20629;-76
2022/07/29 08:37:36;;;;;;;3.35;1.30;;;12.10;99.90;;;;;;5032310;28;20234;-76
2022/07/29 08:40:08;;;;;;;3.58;1.77;;;12.10;99.90;;;;;;5030704;28;20663;-76
2022/07/29 08:42:39;;;;;;;3.30;1.30;;;12.00;99.90;;;;;;5013194;28;20680;-77
2022/07/29 08:45:11;;;;;;;4.93;1.50;;;12.00;99.90;;;;;;5014389;28;20202;-77
2022/07/29 08:47:42;;;;;;;2.25;1.30;;;12.00;99.90;;;;;;5026311;28;20191;-79
2022/07/29 08:50:15;;;;;;;3.60;1.40;;;12.00;99.90;;;;;;5033060;28;20193;-78
2022/07/29 08:52:46;;;;;;;2.05;1.35;;;12.00;99.90;;;;;;5033874;28;20229;-76
2022/07/29 08:55:19;;;;;;;2.63;1.30;;;11.90;99.90;;;;;;5031664;28;20195;-75
2022/07/29 08:57:50;;;;;;;4.40;1.63;;;11.90;99.90;;;;;;5033682;28;20201;-77
2022/07/29 09:00:22;;;;;;;3.83;1.77;;;11.90;99.90;;;;;;5034069;28;20198;-77
2022/07/29 09:02:58;;;;;;;3.00;1.60;;;11.80;99.90;;;;;;5033490;28;20194;-78
2022/07/29 09:05:32;;;;;;;4.65;1.60;;;11.80;99.90;;;;;;5032706;28;20187;-78
2022/07/29 09:08:03;;;;;;;2.80;1.80;;;11.80;99.90;;;;;;5032937;28;20190;-77
2022/07/29 09:10:33;;;;;;;2.70;1.60;;;11.80;99.90;;;;;;5021798;28;20197;-78
2022/07/29 09:13:04;;;;;;;5.57;1.83;;;11.80;99.90;;;;;;5033597;28;20693;-77
2022/07/29 09:15:35;;;;;;;4.95;1.70;;;11.70;99.90;;;;;;5033650;28;20198;-79
2022/07/29 09:18:06;;;;;;;4.00;1.75;;;11.70;99.90;;;;;;5033046;28;20190;-78
2022/07/29 09:23:25;;;;;;;6.38;2.17;;;11.70;99.90;;;;;;5028436;28;20776;-77
2022/07/29 09:25:56;;;;;;;4.85;1.70;;;11.70;99.90;;;;;;5032650;28;20194;-78
2022/07/29 09:28:27;;;;;;;5.00;1.63;;;11.70;99.90;;;;;;5032934;28;20209;-78
2022/07/29 09:30:58;;;;;;;6.70;1.88;;;11.70;99.90;;;;;;5032982;28;20219;-77
2022/07/29 09:33:35;;;;;;;5.97;2.05;;;11.70;99.90;;;;;;5045498;28;20233;-77
2022/07/29 09:36:11;;;;;;;5.95;2.28;;;11.70;99.90;;;;;;5032871;28;20281;-77
2022/07/29 09:38:44;;;;;;;3.90;1.73;;;11.70;99.90;;;;;;5032971;28;20194;-77
2022/07/29 09:41:15;;;;;;;3.72;1.90;;;11.80;99.90;;;;;;5033224;28;20195;-78
2022/07/29 09:43:57;;;;;;;7.15;2.40;;;11.80;99.90;;;;;;5033169;28;20195;-77
2022/07/29 09:46:28;;;;;;;4.93;2.22;;;11.80;99.90;;;;;;5032607;28;20205;-77
2022/07/29 09:49:11;;;;;;;8.23;3.08;;;11.80;99.90;;;;;;5033089;28;20229;-77
2022/07/29 09:51:44;;;;;;;7.07;3.58;;;11.80;99.90;;;;;;5032328;28;20221;-78
2022/07/29 09:54:27;;;;;;;7.40;3.25;;;11.80;99.90;;;;;;5032968;28;20224;-76
2022/07/29 09:56:59;;;;;;;5.40;2.92;;;11.80;99.90;;;;;;5029596;28;20669;-77
2022/07/29 09:59:29;;;;;;;9.18;3.20;;;11.80;99.90;;;;;;5032772;28;20186;-76
2022/07/29 10:02:00;;;;;;;10.02;3.10;;;11.80;99.90;;;;;;5032666;28;20303;-77
2022/07/29 10:04:44;;;;;;;7.68;3.17;;;11.80;99.90;;;;;;5029336;28;20195;-77
2022/07/29 10:07:17;;;;;;;7.05;3.03;;;11.90;99.90;;;;;;5032280;28;20641;-76
2022/07/29 10:09:57;;;;;;;6.13;2.80;;;11.80;99.90;;;;;;5032100;28;20205;-76
2022/07/29 10:12:27;;;;;;;6.30;3.00;;;11.80;99.90;;;;;;5028705;28;20577;-77
2022/07/29 10:14:58;;;;;;;7.45;3.50;;;11.80;99.90;;;;;;5032132;28;20279;-76
2022/07/29 10:17:30;;;;;;;6.57;3.20;;;11.80;99.90;;;;;;5032323;28;20187;-77
2022/07/29 10:20:01;;;;;;;8.75;3.22;;;11.70;99.90;;;;;;5031826;28;20203;-77
2022/07/29 10:22:33;;;;;;;9.35;2.95;;;11.70;99.90;;;;;;5032667;28;20198;-77
2022/07/29 10:25:04;;;;;;;4.60;2.50;;;11.70;99.90;;;;;;5032667;28;20201;-76
2022/07/29 10:27:35;;;;;;;7.18;2.90;;;11.70;99.90;;;;;;5032317;28;20277;-77
2022/07/29 10:30:06;;;;;;;5.18;2.58;;;11.60;99.90;;;;;;5032680;28;20601;-79
2022/07/29 10:32:51;;;;;;;7.03;2.30;;;11.60;99.90;;;;;;5038277;28;20651;-77
2022/07/29 10:35:46;;;;;;;5.78;2.40;;;11.50;99.90;;;;;;5035776;28;20225;-77
2022/07/29 10:38:45;;;;;;;5.82;2.60;;;11.50;99.90;;;;;;5031347;28;20661;-77
2022/07/29 10:41:34;;;;;;;8.40;2.47;;;11.40;99.90;;;;;;5032460;28;20232;-77
2022/07/29 10:44:06;;;;;;;5.05;2.50;;;11.40;99.90;;;;;;5032396;28;20198;-77
2022/07/29 10:46:39;;;;;;;7.65;2.38;;;11.30;99.90;;;;;;5019203;28;20195;-76
2022/07/29 10:49:12;;;;;;;4.85;2.40;;;11.30;99.90;;;;;;5034479;28;20190;-76
2022/07/29 10:52:02;;;;;;;5.60;2.92;;;11.20;99.90;;;;;;5032223;28;20194;-77
2022/07/29 10:54:47;;;;;;;6.65;2.78;;;11.20;99.90;;;;;;5031180;28;20218;-75
2022/07/29 10:57:22;;;;;;;6.85;2.50;;;11.20;99.90;;;;;;5023455;28;20201;-77
2022/07/29 11:00:14;;;;;;;9.02;2.65;;;11.10;99.90;;;;;;5031163;28;20197;-75
2022/07/29 11:02:54;;;;;;;5.15;2.53;;;11.10;99.90;;;;;;5031327;28;20546;-77
2022/07/29 11:05:29;;;;;;;9.90;2.75;;;11.00;99.90;;;;;;5032285;28;20199;-73
2022/07/29 11:08:23;;;;;;;6.40;2.60;;;11.00;99.90;;;;;;5032321;28;20198;-73
2022/07/29 11:11:16;;;;;;;6.78;2.40;;;11.00;99.90;;;;;;5031893;28;20241;-73
2022/07/29 11:13:52;;;;;;;6.72;2.60;;;10.90;99.90;;;;;;5031829;28;20237;-72
2022/07/29 11:16:25;;;;;;;5.85;2.72;;;10.90;99.90;;;;;;5024882;28;20202;-72
2022/07/29 11:19:23;;;;;;;5.90;2.70;;;10.90;99.90;;;;;;5032008;28;20195;-74
2022/07/29 11:21:54;;;;;;;5.63;2.55;;;10.90;99.90;;;;;;5032174;28;20245;-72
2022/07/29 11:24:27;;;;;;;7.00;2.65;;;10.80;99.90;;;;;;5032176;28;20202;-72
2022/07/29 11:27:16;;;;;;;5.95;2.47;;;10.80;99.90;;;;;;5031826;28;20206;-77
2022/07/29 11:29:54;;;;;;;8.40;2.53;;;10.80;99.90;;;;;;5035480;28;20594;-74
2022/07/29 11:32:26;;;;;;;10.65;2.42;;;10.80;99.90;;;;;;5040165;28;20631;-73
2022/07/29 11:35:14;;;;;;;5.10;2.40;;;10.80;99.90;;;;;;5041772;28;20305;-72
2022/07/29 11:37:45;;;;;;;4.82;2.83;;;10.80;99.90;;;;;;5038367;28;20217;-73
2022/07/29 11:40:21;;;;;;;4.18;2.40;;;10.70;99.90;;;;;;5055538;28;20189;-74
2022/07/29 11:42:54;;;;;;;5.72;2.53;;;10.70;99.90;;;;;;5054306;28;20189;-73
2022/07/29 11:45:47;;;;;;;4.60;2.63;;;10.70;99.90;;;;;;5034952;28;20198;-72
2022/07/29 11:48:21;;;;;;;6.20;2.70;;;10.70;99.90;;;;;;5035399;28;20703;-73
2022/07/29 11:50:52;;;;;;;5.28;2.40;;;10.70;99.90;;;;;;5035838;28;20194;-72
2022/07/29 11:53:23;;;;;;;7.45;2.95;;;10.60;99.90;;;;;;5042927;28;20692;-72
2022/07/29 11:55:58;;;;;;;7.22;2.92;;;10.50;99.90;;;;;;5035113;28;20222;-73
2022/07/29 11:58:31;;;;;;;5.95;2.72;;;10.50;99.90;;;;;;5035709;28;20190;-72
2022/07/29 12:01:03;;;;;;;5.70;2.88;;;10.50;99.90;;;;;;5048560;28;20673;-73
2022/07/29 12:03:34;;;;;;;5.80;2.70;;;10.40;99.90;;;;;;5055028;28;20212;-73
2022/07/29 12:06:06;;;;;;;4.03;2.50;;;10.40;99.90;;;;;;5045407;28;20222;-72
2022/07/29 12:08:44;;;;;;;4.65;2.22;;;10.50;99.90;;;;;;5046014;28;20195;-73
2022/07/29 12:11:24;;;;;;;8.35;2.40;;;10.50;99.90;;;;;;5034904;28;20248;-77
2022/07/29 12:13:56;;;;;;;7.30;2.47;;;10.50;99.90;;;;;;5017825;28;20186;-73
2022/07/29 12:16:36;;;;;;;4.78;2.28;;;10.50;99.90;;;;;;5032562;28;20197;-73
2022/07/29 12:19:07;;;;;;;6.88;2.22;;;10.50;99.90;;;;;;5034767;28;20225;-75
2022/07/29 12:21:48;;;;;;;6.30;2.42;;;10.50;99.90;;;;;;5045023;28;20653;-72
2022/07/29 12:24:19;;;;;;;6.88;2.40;;;10.60;99.90;;;;;;5015027;28;20206;-72
2022/07/29 12:26:58;;;;;;;4.22;2.47;;;10.60;99.90;;;;;;5031914;28;20186;-72
2022/07/29 12:29:31;;;;;;;5.63;2.78;;;10.50;99.90;;;;;;5037791;28;20213;-72
2022/07/29 12:32:02;;;;;;;5.03;2.80;;;10.50;99.90;;;;;;5032449;28;20250;-73
2022/07/29 12:34:33;;;;;;;5.68;2.92;;;10.50;99.90;;;;;;5033867;28;20308;-73
2022/07/29 12:37:04;;;;;;;5.97;2.65;;;10.40;99.90;;;;;;5033584;28;20234;-77
2022/07/29 12:39:35;;;;;;;5.63;2.65;;;10.40;99.90;;;;;;5045065;28;20194;-73
2022/07/29 12:42:15;;;;;;;6.65;3.22;;;10.40;99.90;;;;;;5034782;28;20194;-73
2022/07/29 12:44:54;;;;;;;5.78;2.67;;;10.40;99.90;;;;;;5039814;28;20190;-73
2022/07/29 12:47:25;;;;;;;5.30;2.70;;;10.40;99.90;;;;;;5035345;28;20190;-77
2022/07/29 12:50:11;;;;;;;5.20;2.42;;;10.40;99.90;;;;;;5044429;28;20194;-73
2022/07/29 12:52:42;;;;;;;6.47;2.85;;;10.40;99.90;;;;;;5037789;28;20586;-75
2022/07/29 12:55:13;;;;;;;9.63;2.58;;;10.40;99.90;;;;;;5041552;28;20217;-72
2022/07/29 12:57:50;;;;;;;3.97;2.30;;;10.40;99.90;;;;;;5034083;28;20205;-73
2022/07/29 13:00:26;;;;;;;4.57;2.65;;;10.40;99.90;;;;;;5034388;28;20190;-74
2022/07/29 13:02:59;;;;;;;7.63;2.70;;;10.40;99.90;;;;;;5035054;28;20194;-72
2022/07/29 13:05:44;;;;;;;7.10;2.63;;;10.40;99.90;;;;;;5044990;28;20194;-72
2022/07/29 13:08:18;;;;;;;5.47;2.60;;;10.40;99.90;;;;;;5033882;28;20198;-78
2022/07/29 13:10:48;;;;;;;5.47;3.00;;;10.40;99.90;;;;;;5031519;28;20232;-72
2022/07/29 13:13:19;;;;;;;4.85;2.55;;;10.40;99.90;;;;;;5032233;28;20194;-73
2022/07/29 13:16:10;;;;;;;6.00;2.90;;;10.40;99.90;;;;;;5033778;28;20747;-73
2022/07/29 13:18:41;;;;;;;5.95;2.55;;;10.30;99.90;;;;;;5033971;28;20206;-73
2022/07/29 13:21:16;;;;;;;4.93;2.65;;;10.30;99.90;;;;;;5041419;28;20645;-72
2022/07/29 13:23:48;;;;;;;4.82;2.25;;;10.30;99.90;;;;;;5036399;28;20622;-73
2022/07/29 13:26:19;;;;;;;8.75;2.50;;;10.30;99.90;;;;;;5033010;28;20608;-73